• Join FlightAware (Why Join?)
  • Login
  • US Flag 
01:45AM EDT


 

Airport Tracker/Info


-or-


 

Live Flight TrackerFlight Track Log ✈ SWA1521 ✈ 29-Apr-2013 ✈ KSMF - KLAX

Flight Track Log - Related Links

Times and Time Zones

All times are in EDT time to prevent confusion due to time zone crossing. See the SWA1521 flight status page for this flight to view local times or setup timezone preferences in your user account.

Time Position Orientation Groundspeed Altitude Reporting Facility
EDT Latitude Longitude Course Direction KTS MPH feet Rate Location/Type
11:37PM 38.7333 -121.6000 108° East 156 180 1,900  Level Northern Cal TRACON
11:38PM 38.7167 -121.5333 108° East 232 267 4,500 2,820 Climbing Northern Cal TRACON
11:39PM 38.6667 -121.4667 134° Southeast 273 314 7,600 3,000 Climbing Northern Cal TRACON
11:40PM 38.6042 -121.3544 125° Southeast 324 373 11,700 3,300 Climbing Oakland Center
11:41PM 38.5444 -121.2461 125° Southeast 364 419 15,600 3,600 Climbing Oakland Center
11:42PM 38.4853 -121.1389 125° Southeast 382 440 19,100 3,240 Climbing Oakland Center
11:43PM 38.4194 -121.0189 125° Southeast 406 467 22,300 2,760 Climbing Oakland Center
11:44PM 38.3506 -120.8944 125° Southeast 425 489 24,800 2,700 Climbing Oakland Center
11:45PM 38.2639 -120.7372 125° Southeast 448 516 27,900 2,640 Climbing Oakland Center
11:46PM 38.1728 -120.6211 135° Southeast 456 525 30,200 2,100 Climbing Oakland Center
11:47PM 38.0667 -120.5194 143° Southeast 472 543 32,200 2,220 Climbing Oakland Center
11:48PM 37.9617 -120.4158 142° Southeast 476 548 34,800 2,340 Climbing Oakland Center
11:49PM 37.8600 -120.3172 143° Southeast 462 532 37,000 1,980 Climbing Oakland Center
11:50PM 37.7597 -120.2194 142° Southeast 457 526 38,900 960 Climbing Oakland Center
11:51PM 37.6583 -120.1233 143° Southeast 455 524 39,000  Climbing Oakland Center
11:52PM 37.5558 -120.0328 145° Southeast 453 521 39,000  Level Oakland Center
11:53PM 37.4475 -119.9600 152° Southeast 450 518 39,000  Level Oakland Center
11:54PM 37.3233 -119.9419 173° South 447 514 39,000  Level Oakland Center
11:56PM 37.1981 -119.9225 173° South 452 520 39,000  Level Oakland Center
11:57PM 37.0547 -119.8997 173° South 446 513 39,000  Level Oakland Center
11:58PM 36.9275 -119.8817 174° South 458 527 39,000  Level Oakland Center
11:59PM 36.8019 -119.8581 171° South 461 531 39,000  Level Oakland Center
12:00AM 36.6725 -119.8406 174° South 464 534 39,000  Level Oakland Center
12:01AM 36.5458 -119.8222 173° South 459 528 39,000  Level Oakland Center
12:02AM 36.4172 -119.8033 173° South 463 533 39,000  Level Oakland Center
12:03AM 36.2894 -119.7847 173° South 462 532 39,000  Level Oakland Center
12:04AM 36.1603 -119.7653 173° South 466 536 39,000  Level Oakland Center
12:05AM 36.0317 -119.7469 173° South 465 535 39,000  Level Oakland Center
12:06AM 35.9044 -119.7331 175° South 457 526 39,000  Level Oakland Center
12:07AM 35.7747 -119.7122 173° South 464 534 39,000  Level Oakland Center
12:08AM 35.6433 -119.6942 174° South 470 541 39,000 -420 Level Oakland Center
12:09AM 35.5150 -119.6767 174° South 462 532 38,200 -840 Descending Oakland Center
12:10AM 35.3853 -119.6583 173° South 465 535 37,300 -960 Descending Oakland Center
12:11AM 35.2581 -119.6333 171° South 462 532 36,300 -1,080 Descending Oakland Center
12:11AM 35.2139 -119.6056 153° Southeast 456 525 35,900 -1,080 Descending Los Angeles Center
12:12AM 35.1125 -119.5189 145° Southeast 445 512 35,000 -1,740 Descending Los Angeles Center
12:13AM 35.0103 -119.4314 145° Southeast 448 516 32,400 -2,460 Descending Los Angeles Center
12:14AM 34.9086 -119.3456 145° Southeast 444 511 30,000 -2,340 Descending Los Angeles Center
12:15AM 34.8111 -119.2636 145° Southeast 432 497 27,700 -2,340 Descending Los Angeles Center
12:16AM 34.7131 -119.1822 146° Southeast 428 493 25,300 -2,400 Descending Los Angeles Center
12:17AM 34.6133 -119.0972 145° Southeast 426 490 22,900 -2,340 Descending Los Angeles Center
12:18AM 34.5219 -119.0211 146° Southeast 394 453 20,600 -2,220 Descending Los Angeles Center
12:19AM 34.4325 -118.9464 145° Southeast 390 449 18,400 -2,340 Descending Los Angeles Center
12:20AM 34.3272 -118.8692 149° Southeast 369 425 15,900 -1,740 Descending Los Angeles Center
12:21AM 34.2381 -118.8383 164° South 335 386 14,900 -1,320 Descending Los Angeles Center
12:22AM 34.1531 -118.8436 183° South 317 365 13,300 -1,620 Descending Los Angeles Center
12:23AM 34.0706 -118.8514 184° South 311 358 11,600 -1,620 Descending Los Angeles Center
12:24AM 34.0347 -118.7556 114° Southeast 307 353 10,000 -840 Descending Los Angeles Center
12:25AM 34.0264 -118.6561 96° East 299 344 10,000 -120 Level Los Angeles Center
12:26AM 34.0189 -118.5650 96° East 247 284 9,800 -660 Descending Los Angeles Center
12:27AM 34.0128 -118.4931 96° East 218 251 8,700 -960 Descending Los Angeles Center
12:28AM 34.0131 -118.4322 90° East 212 244 7,900 -900 Descending Los Angeles Center
12:29AM 34.0200 -118.3506 84° East 204 235 6,900 -1,020 Descending Los Angeles Center
12:30AM 34.0236 -118.2825 86° East 203 234 5,900 -1,020 Descending Los Angeles Center
12:31AM 34.0294 -118.2175 84° East 198 228 4,900 -900 Descending Los Angeles Center
12:32AM 34.0339 -118.1661 84° East 194 223 4,100 -900 Descending Los Angeles Center
12:33AM 34.0333 -118.0833 90° East 195 224 3,200 -780 Descending Southern California TRACON
12:34AM 34.0000 -118.1000 203° Southwest 190 219 2,600 -300 Descending Southern California TRACON
12:36AM 33.9833 -118.1500 248° West 177 204 2,600  Level Southern California TRACON
12:37AM 33.9667 -118.2167 253° West 180 207 2,600 -240 Level Southern California TRACON
12:38AM 33.9667 -118.2667 270° West 184 212 2,200 -660 Descending Southern California TRACON
12:39AM 33.9667 -118.3333 270° West 152 175 1,300 -780 Descending Southern California TRACON
12:40AM 33.9500 -118.3667 239° Southwest 129 148 700 -660 Descending Southern California TRACON
12:40AM 33.9556 -118.3806 296° West 142 163 500 -480 Descending Los Angeles Center
12:41AM 33.9511 -118.4172 262° West 135 155 100 -420 Descending Los Angeles Center
12:43AM 33.9425 -118.4081 239° Southwest  Level Estimated